Time;durP1;ratioP1;P1;durP2;ratioP2;P2;SDS_P1;SDS_P2;PMS_P1;PMS_P2;Temp;Humidity;BMP_temperature;BMP_pressure;BME280_temperature;BME280_humidity;BME280_pressure;Samples;Min_cycle;Max_cycle;Signal;HPM_P1;HPM_P2
2022/12/07 00:02:23;;;;;;;9.70;8.95;;;10.10;85.20;;;;;;4996988;28;20472;-84
2022/12/07 00:04:49;;;;;;;10.02;9.13;;;10.10;85.20;;;;;;5007794;28;20105;-84
2022/12/07 00:07:14;;;;;;;10.52;9.73;;;10.10;85.20;;;;;;5018470;28;20489;-84
2022/12/07 00:09:41;;;;;;;10.45;9.65;;;10.10;85.70;;;;;;5020373;28;20033;-84
2022/12/07 00:12:07;;;;;;;10.15;9.13;;;10.10;85.10;;;;;;5015456;28;20029;-84
2022/12/07 00:14:33;;;;;;;10.27;9.48;;;10.10;85.20;;;;;;5015271;28;20029;-84
2022/12/07 00:16:58;;;;;;;9.52;8.82;;;10.10;85.10;;;;;;5017919;28;20022;-84
2022/12/07 00:19:24;;;;;;;10.00;9.20;;;10.10;85.20;;;;;;5014313;28;20703;-83
2022/12/07 00:21:49;;;;;;;9.75;8.95;;;10.10;85.10;;;;;;5014196;28;20022;-84
2022/12/07 00:24:15;;;;;;;9.82;9.02;;;10.10;85.10;;;;;;5012638;28;20061;-84
2022/12/07 00:26:42;;;;;;;9.88;9.07;;;10.10;85.10;;;;;;5013219;28;20021;-85
2022/12/07 00:29:19;;;;;;;9.73;9.02;;;10.10;85.00;;;;;;5014563;28;20026;-84
2022/12/07 00:31:45;;;;;;;9.88;9.07;;;10.20;85.00;;;;;;5016642;28;20049;-84
2022/12/07 00:34:16;;;;;;;9.65;8.95;;;10.20;84.90;;;;;;5024016;28;20474;-85
2022/12/07 00:36:42;;;;;;;9.80;9.00;;;10.20;84.80;;;;;;5024390;28;20037;-85
2022/12/07 00:39:08;;;;;;;10.13;9.35;;;10.20;84.80;;;;;;5023561;28;20033;-84
2022/12/07 00:41:34;;;;;;;10.02;9.23;;;10.20;84.70;;;;;;5010817;28;20397;-85
2022/12/07 00:44:00;;;;;;;9.65;8.88;;;10.20;84.60;;;;;;5012032;28;20029;-85
2022/12/07 00:46:26;;;;;;;10.05;9.25;;;10.20;84.60;;;;;;5021651;28;20501;-84
2022/12/07 00:48:53;;;;;;;10.07;9.27;;;10.20;84.60;;;;;;5000901;28;20030;-84
2022/12/07 00:51:21;;;;;;;10.25;9.38;;;10.20;84.70;;;;;;5001804;28;20084;-84
2022/12/07 00:53:47;;;;;;;9.98;9.18;;;10.20;84.70;;;;;;5018697;28;20029;-84
2022/12/07 00:56:21;;;;;;;10.13;9.32;;;10.20;84.80;;;;;;5019492;28;20021;-84
2022/12/07 00:58:58;;;;;;;9.70;8.90;;;10.10;84.80;;;;;;5019535;28;20045;-84
2022/12/07 01:01:26;;;;;;;10.00;9.20;;;10.20;84.90;;;;;;5020109;28;20030;-84
2022/12/07 01:03:52;;;;;;;9.82;9.02;;;10.10;84.90;;;;;;5018333;28;20026;-84
2022/12/07 01:06:19;;;;;;;9.95;9.20;;;10.10;85.00;;;;;;5019454;28;20536;-85
2022/12/07 01:08:45;;;;;;;10.32;9.55;;;10.10;85.00;;;;;;5017775;28;20556;-84
2022/12/07 01:11:14;;;;;;;10.00;9.20;;;10.10;85.10;;;;;;5015387;28;20030;-81
2022/12/07 01:13:40;;;;;;;10.13;9.32;;;10.10;85.10;;;;;;5006672;28;20601;-84
2022/12/07 01:16:06;;;;;;;9.45;8.75;;;10.10;85.10;;;;;;5018426;28;20609;-84
2022/12/07 01:18:34;;;;;;;9.85;9.13;;;10.10;85.20;;;;;;5017027;28;20029;-84
2022/12/07 01:21:06;;;;;;;9.93;9.13;;;10.10;85.20;;;;;;5008671;28;20030;-84
2022/12/07 01:23:32;;;;;;;9.68;8.88;;;10.10;85.20;;;;;;4994853;28;20394;-84
2022/12/07 01:25:59;;;;;;;9.82;9.02;;;10.10;85.20;;;;;;5016300;28;20022;-84
2022/12/07 01:28:24;;;;;;;9.82;9.05;;;10.10;85.20;;;;;;5020104;28;20100;-84
2022/12/07 01:31:00;;;;;;;10.25;9.38;;;10.10;85.20;;;;;;5020815;28;20096;-84
2022/12/07 01:33:28;;;;;;;9.52;8.77;;;10.10;85.20;;;;;;5018190;28;20120;-84
2022/12/07 01:35:54;;;;;;;9.60;8.80;;;10.10;85.30;;;;;;5021854;28;20026;-84
2022/12/07 01:38:19;;;;;;;9.93;9.13;;;10.10;85.20;;;;;;5018700;28;20084;-84
2022/12/07 01:40:45;;;;;;;10.35;9.50;;;10.10;85.30;;;;;;5018464;28;20034;-84
2022/12/07 01:43:17;;;;;;;9.85;9.07;;;10.10;85.30;;;;;;5012257;28;20494;-85
2022/12/07 01:45:43;;;;;;;9.90;9.10;;;10.10;85.30;;;;;;5012372;28;20072;-84
2022/12/07 01:48:11;;;;;;;9.48;8.77;;;10.10;85.30;;;;;;5020022;28;20429;-85
2022/12/07 01:50:38;;;;;;;9.88;9.07;;;10.10;85.30;;;;;;5016716;28;20102;-85
2022/12/07 01:53:07;;;;;;;9.55;8.80;;;10.10;85.30;;;;;;5018265;28;20033;-84
2022/12/07 01:55:37;;;;;;;9.63;8.82;;;10.10;85.30;;;;;;5015008;28;20086;-85
2022/12/07 01:58:03;;;;;;;9.60;8.90;;;10.10;85.30;;;;;;5004719;28;20027;-85
2022/12/07 02:00:28;;;;;;;10.35;9.43;;;10.00;85.20;;;;;;5017835;28;20052;-84
2022/12/07 02:03:03;;;;;;;9.52;8.80;;;10.10;85.30;;;;;;5036964;28;20053;-85
2022/12/07 02:05:29;;;;;;;10.13;9.32;;;10.10;85.30;;;;;;5025754;28;20022;-85
2022/12/07 02:07:57;;;;;;;10.07;9.27;;;10.10;85.30;;;;;;5025969;28;20072;-84
2022/12/07 02:10:28;;;;;;;10.02;9.23;;;10.00;85.30;;;;;;5024345;28;20121;-84
2022/12/07 02:13:09;;;;;;;9.25;8.55;;;10.10;85.30;;;;;;5009079;28;20081;-84
2022/12/07 02:15:43;;;;;;;9.68;8.88;;;10.10;85.30;;;;;;5006080;28;20030;-84
2022/12/07 02:18:15;;;;;;;9.63;8.82;;;10.10;85.30;;;;;;5007296;28;20041;-84
2022/12/07 02:20:56;;;;;;;10.35;9.45;;;10.10;85.30;;;;;;5022700;28;20025;-84
2022/12/07 02:23:50;;;;;;;10.00;9.10;;;10.00;85.20;;;;;;5010344;28;20113;-85
2022/12/07 02:26:41;;;;;;;9.63;8.82;;;10.10;85.30;;;;;;5021430;28;20027;-84
2022/12/07 02:29:16;;;;;;;9.65;8.85;;;10.10;85.30;;;;;;5017054;28;20022;-84
2022/12/07 02:32:15;;;;;;;9.48;8.77;;;10.10;85.30;;;;;;5020991;28;20033;-84
2022/12/07 02:35:05;;;;;;;9.52;8.82;;;10.00;85.30;;;;;;5018733;28;20034;-84
2022/12/07 02:37:46;;;;;;;9.43;8.73;;;10.10;85.30;;;;;;5012985;28;20088;-85
2022/12/07 02:40:35;;;;;;;9.73;8.93;;;10.10;85.30;;;;;;5021556;28;20033;-85
2022/12/07 02:43:09;;;;;;;9.10;8.40;;;10.10;85.20;;;;;;5012305;28;20084;-85
2022/12/07 02:45:38;;;;;;;9.65;8.85;;;10.10;85.80;;;;;;5005315;28;20038;-84
2022/12/07 02:48:06;;;;;;;10.05;9.15;;;10.10;85.30;;;;;;5015419;28;20030;-84
2022/12/07 02:50:32;;;;;;;9.63;8.90;;;10.10;85.20;;;;;;5006175;28;20027;-84
2022/12/07 02:52:57;;;;;;;9.63;8.88;;;10.10;85.30;;;;;;5018251;28;20033;-85
2022/12/07 02:55:32;;;;;;;9.45;8.73;;;10.10;85.20;;;;;;5022357;28;20034;-85
2022/12/07 02:58:28;;;;;;;9.77;8.98;;;10.10;85.20;;;;;;5023452;28;20033;-84
2022/12/07 03:01:12;;;;;;;9.90;9.10;;;10.10;85.20;;;;;;5021201;28;20406;-85
2022/12/07 03:03:44;;;;;;;9.75;8.95;;;10.10;85.20;;;;;;5026115;28;20026;-84
2022/12/07 03:06:19;;;;;;;9.73;8.93;;;10.10;85.20;;;;;;5024320;28;20375;-85
2022/12/07 03:09:05;;;;;;;9.40;8.70;;;10.10;85.20;;;;;;5024726;28;20077;-85
2022/12/07 03:11:48;;;;;;;10.13;9.32;;;10.10;85.20;;;;;;5012480;28;20030;-85
2022/12/07 03:14:37;;;;;;;9.90;9.10;;;10.10;85.20;;;;;;5005197;28;20549;-85
2022/12/07 03:17:13;;;;;;;9.95;9.18;;;10.10;85.20;;;;;;5016630;28;20080;-85
2022/12/07 03:19:40;;;;;;;9.95;8.95;;;10.10;85.20;;;;;;5015746;28;20034;-84
2022/12/07 03:22:10;;;;;;;9.77;9.02;;;10.10;85.20;;;;;;5009500;28;20045;-85
2022/12/07 03:24:49;;;;;;;9.98;9.18;;;10.10;85.10;;;;;;5024919;28;20021;-85
2022/12/07 03:27:21;;;;;;;9.98;9.18;;;10.10;85.10;;;;;;5016692;28;20499;-85
2022/12/07 03:29:54;;;;;;;9.85;9.05;;;10.10;85.20;;;;;;5018056;28;20116;-85
2022/12/07 03:32:23;;;;;;;9.60;8.82;;;10.10;85.10;;;;;;5019996;28;20037;-85
2022/12/07 03:35:31;;;;;;;10.00;9.20;;;10.10;85.70;;;;;;5022529;28;20049;-84
2022/12/07 03:38:15;;;;;;;9.93;9.13;;;10.10;85.10;;;;;;5023098;28;20071;-84
2022/12/07 03:40:54;;;;;;;9.18;8.38;;;10.10;85.10;;;;;;5014133;28;20030;-84
2022/12/07 03:43:21;;;;;;;9.60;8.90;;;10.10;85.10;;;;;;5019711;28;20030;-84
2022/12/07 03:46:28;;;;;;;10.20;9.38;;;10.10;85.00;;;;;;5005613;28;20023;-83
2022/12/07 03:49:18;;;;;;;9.40;8.70;;;10.10;84.90;;;;;;4996886;28;20525;-84
2022/12/07 03:52:02;;;;;;;8.93;8.23;;;10.10;84.80;;;;;;5005278;28;20026;-84
2022/12/07 03:54:36;;;;;;;9.27;8.57;;;10.10;84.80;;;;;;5020984;28;20026;-84
2022/12/07 03:57:02;;;;;;;9.18;8.48;;;10.20;84.70;;;;;;5014824;28;20030;-85
2022/12/07 03:59:29;;;;;;;9.13;8.43;;;10.20;84.70;;;;;;5031183;28;20386;-82
2022/12/07 04:02:00;;;;;;;9.75;8.95;;;10.20;84.70;;;;;;5019790;28;20068;-85
2022/12/07 04:04:26;;;;;;;9.10;8.40;;;10.20;84.70;;;;;;5018634;28;20041;-84
2022/12/07 04:06:52;;;;;;;9.43;8.63;;;10.20;84.70;;;;;;5030571;28;20055;-84
2022/12/07 04:09:17;;;;;;;9.50;8.80;;;10.10;84.70;;;;;;5034779;28;20072;-84
2022/12/07 04:11:43;;;;;;;9.70;8.88;;;10.10;84.80;;;;;;5014398;28;20034;-84
2022/12/07 04:14:21;;;;;;;9.30;8.60;;;10.10;84.80;;;;;;5011913;28;20022;-84
2022/12/07 04:16:48;;;;;;;9.48;8.68;;;10.10;84.90;;;;;;5016754;28;20037;-84
2022/12/07 04:19:13;;;;;;;9.60;8.80;;;10.10;85.00;;;;;;5015664;28;20028;-84
2022/12/07 04:21:39;;;;;;;9.27;8.57;;;10.10;85.00;;;;;;5017501;28;20112;-84
2022/12/07 04:24:05;;;;;;;9.05;8.35;;;10.10;85.00;;;;;;5017339;28;20562;-84
2022/12/07 04:26:31;;;;;;;9.48;8.68;;;10.10;85.10;;;;;;5017153;28;20053;-84
2022/12/07 04:28:56;;;;;;;9.20;8.40;;;10.00;85.10;;;;;;5015576;28;20030;-84
2022/12/07 04:31:22;;;;;;;9.70;8.95;;;10.10;85.20;;;;;;5014235;28;20029;-84
2022/12/07 04:33:47;;;;;;;9.63;8.82;;;10.00;85.10;;;;;;5014431;28;20022;-85
2022/12/07 04:36:13;;;;;;;9.70;8.90;;;10.00;85.20;;;;;;5017535;28;20026;-85
2022/12/07 04:38:39;;;;;;;9.25;8.55;;;10.00;85.20;;;;;;5015571;28;20026;-84
2022/12/07 04:41:09;;;;;;;9.23;8.50;;;10.00;85.20;;;;;;5014963;28;20076;-84
2022/12/07 04:43:35;;;;;;;9.00;8.30;;;10.00;85.20;;;;;;5013600;28;20501;-84
2022/12/07 04:46:01;;;;;;;8.95;8.25;;;10.00;85.20;;;;;;5015294;28;20069;-84
2022/12/07 04:48:27;;;;;;;9.80;8.43;;;10.00;85.20;;;;;;5014112;28;20478;-85
2022/12/07 04:50:52;;;;;;;9.18;8.38;;;10.00;85.20;;;;;;5016335;28;20021;-85
2022/12/07 04:53:18;;;;;;;8.93;8.23;;;10.00;85.20;;;;;;5003336;28;20031;-84
2022/12/07 04:55:45;;;;;;;9.10;8.30;;;10.00;85.30;;;;;;4994439;28;20104;-84
2022/12/07 04:58:11;;;;;;;8.82;8.10;;;10.00;85.30;;;;;;4994059;28;20033;-84
2022/12/07 05:00:37;;;;;;;8.95;8.25;;;10.00;85.30;;;;;;4996028;28;20072;-84
2022/12/07 05:03:02;;;;;;;9.32;8.52;;;10.00;85.30;;;;;;5023901;28;20030;-84
2022/12/07 05:05:28;;;;;;;9.02;8.30;;;10.00;85.30;;;;;;5021508;28;20037;-84
2022/12/07 05:07:53;;;;;;;9.13;8.32;;;10.00;85.30;;;;;;5021477;28;20025;-84
2022/12/07 05:10:19;;;;;;;8.98;8.27;;;10.00;85.30;;;;;;5019261;28;20061;-84
2022/12/07 05:12:45;;;;;;;9.20;8.50;;;10.00;85.30;;;;;;5018688;28;20053;-84
2022/12/07 05:15:11;;;;;;;9.27;8.48;;;10.00;85.30;;;;;;5018477;28;20021;-84
2022/12/07 05:17:37;;;;;;;9.07;8.38;;;10.00;85.80;;;;;;5019213;28;20588;-84
2022/12/07 05:20:03;;;;;;;9.25;8.55;;;10.00;85.30;;;;;;5016633;28;20053;-82
2022/12/07 05:22:29;;;;;;;8.80;8.10;;;10.00;85.30;;;;;;5018466;28;20053;-82
2022/12/07 05:24:55;;;;;;;9.07;8.38;;;10.00;85.30;;;;;;5021341;28;20714;-83
2022/12/07 05:27:21;;;;;;;8.95;8.25;;;10.00;85.20;;;;;;5022547;28;20090;-85
2022/12/07 05:29:47;;;;;;;9.70;8.90;;;10.00;85.20;;;;;;5023327;28;20092;-85
2022/12/07 05:32:12;;;;;;;8.93;8.23;;;10.00;85.30;;;;;;5021885;28;20541;-81
2022/12/07 05:34:38;;;;;;;8.93;8.23;;;10.00;85.30;;;;;;5010991;28;20482;-84
2022/12/07 05:37:03;;;;;;;8.88;8.18;;;10.00;85.30;;;;;;5008334;28;20389;-82
2022/12/07 05:39:29;;;;;;;9.57;8.77;;;10.00;85.30;;;;;;5017185;28;20057;-80
2022/12/07 05:42:12;;;;;;;8.73;8.02;;;10.00;85.20;;;;;;5016436;28;20025;-83
2022/12/07 05:44:44;;;;;;;8.88;8.15;;;10.00;85.30;;;;;;5012684;28;20466;-83
2022/12/07 05:47:10;;;;;;;9.43;8.65;;;10.00;85.20;;;;;;5019091;28;20022;-83
2022/12/07 05:49:36;;;;;;;9.30;8.60;;;10.00;85.20;;;;;;5017445;28;20034;-81
2022/12/07 05:52:02;;;;;;;9.32;8.63;;;10.00;85.20;;;;;;5019048;28;20540;-81
2022/12/07 05:54:28;;;;;;;9.27;8.57;;;10.00;85.20;;;;;;5019899;28;20053;-82
2022/12/07 05:56:54;;;;;;;9.57;8.77;;;10.00;85.20;;;;;;5016324;28;20053;-83
2022/12/07 05:59:22;;;;;;;8.98;8.18;;;10.00;85.30;;;;;;5018915;28;20014;-82
2022/12/07 06:01:51;;;;;;;9.13;8.32;;;10.00;85.20;;;;;;5017830;28;20022;-83
2022/12/07 06:04:17;;;;;;;8.55;7.85;;;10.00;85.20;;;;;;5020460;28;20112;-82
2022/12/07 06:06:43;;;;;;;8.93;8.15;;;10.00;85.20;;;;;;5021195;28;20049;-81
2022/12/07 06:09:08;;;;;;;8.82;8.13;;;10.00;85.10;;;;;;5019433;28;20548;-80
2022/12/07 06:14:18;;;;;;;9.15;8.45;;;10.00;85.20;;;;;;5010781;28;20098;-83
2022/12/07 06:16:44;;;;;;;8.68;7.97;;;10.00;85.20;;;;;;5013722;28;20065;-82
2022/12/07 06:19:09;;;;;;;9.57;8.88;;;10.00;85.10;;;;;;5017546;28;20034;-81
2022/12/07 06:21:35;;;;;;;9.27;8.57;;;10.00;85.10;;;;;;5013399;28;20030;-81
2022/12/07 06:24:00;;;;;;;9.13;8.43;;;10.00;85.10;;;;;;5023246;28;20076;-83
2022/12/07 06:26:26;;;;;;;8.93;8.23;;;10.00;85.10;;;;;;5023987;28;20033;-84
2022/12/07 06:28:51;;;;;;;9.52;8.82;;;10.00;85.10;;;;;;5015932;28;20037;-83
2022/12/07 06:31:17;;;;;;;9.57;8.88;;;10.00;85.10;;;;;;5009167;28;20057;-83
2022/12/07 06:33:43;;;;;;;9.20;8.50;;;10.00;85.10;;;;;;5014243;28;20025;-82
2022/12/07 06:36:09;;;;;;;8.90;8.20;;;10.00;85.10;;;;;;5019486;28;20033;-84
2022/12/07 06:38:35;;;;;;;8.77;8.07;;;10.00;85.10;;;;;;5019200;28;20087;-84
2022/12/07 06:41:00;;;;;;;9.00;8.30;;;10.00;85.10;;;;;;5013712;28;20034;-82
2022/12/07 06:43:27;;;;;;;9.13;8.43;;;10.00;85.10;;;;;;5020238;28;20048;-83
2022/12/07 06:45:52;;;;;;;9.27;8.55;;;10.00;85.00;;;;;;5020390;28;20092;-84
2022/12/07 06:48:18;;;;;;;9.40;8.60;;;10.00;85.10;;;;;;5014066;28;20050;-82
2022/12/07 06:50:47;;;;;;;8.68;7.97;;;10.00;85.00;;;;;;4999323;28;20034;-82
2022/12/07 06:53:13;;;;;;;9.02;8.32;;;10.00;85.00;;;;;;5013040;28;20027;-82
2022/12/07 06:55:39;;;;;;;9.10;8.40;;;10.00;85.00;;;;;;4997361;28;20053;-83
2022/12/07 06:58:05;;;;;;;8.68;7.97;;;10.00;84.90;;;;;;4997742;28;20034;-83
2022/12/07 07:00:30;;;;;;;8.80;8.10;;;10.00;84.80;;;;;;4999071;28;20057;-81
2022/12/07 07:02:56;;;;;;;8.77;8.07;;;10.00;84.80;;;;;;5011546;28;20053;-81
2022/12/07 07:05:21;;;;;;;8.80;8.10;;;10.10;84.70;;;;;;4999346;28;20038;-83
2022/12/07 07:07:48;;;;;;;8.48;7.75;;;10.10;84.70;;;;;;5014478;28;20018;-84
2022/12/07 07:10:14;;;;;;;8.75;7.95;;;10.10;84.50;;;;;;5014783;28;20040;-83
2022/12/07 07:12:39;;;;;;;8.75;7.95;;;10.10;84.60;;;;;;4997314;28;20060;-84
2022/12/07 07:15:05;;;;;;;8.60;7.90;;;10.10;84.40;;;;;;5029851;28;20032;-84
2022/12/07 07:17:31;;;;;;;9.07;8.38;;;10.10;84.40;;;;;;5016112;28;20049;-84
2022/12/07 07:19:56;;;;;;;8.88;8.18;;;10.10;84.40;;;;;;5015813;28;20474;-84
2022/12/07 07:22:22;;;;;;;8.45;7.70;;;10.10;84.40;;;;;;5013093;28;20084;-82
2022/12/07 07:24:47;;;;;;;8.65;7.95;;;10.10;84.50;;;;;;5013962;28;20095;-83
2022/12/07 07:27:13;;;;;;;8.63;7.93;;;10.10;84.60;;;;;;5017400;28;20024;-83
2022/12/07 07:29:38;;;;;;;9.00;8.20;;;10.10;84.70;;;;;;5015734;28;20018;-83
2022/12/07 07:32:04;;;;;;;9.25;8.55;;;10.10;84.70;;;;;;5001249;28;20022;-83
2022/12/07 07:34:30;;;;;;;8.70;7.90;;;10.00;84.80;;;;;;4995798;28;20088;-83
2022/12/07 07:36:55;;;;;;;8.55;7.75;;;10.00;84.80;;;;;;4996926;28;20109;-84
2022/12/07 07:39:21;;;;;;;8.68;7.97;;;10.00;84.90;;;;;;4999988;28;20483;-81
2022/12/07 07:41:47;;;;;;;8.52;7.72;;;10.00;84.90;;;;;;5002102;28;20030;-83
2022/12/07 07:44:13;;;;;;;8.52;7.82;;;10.00;85.50;;;;;;5004028;28;20029;-83
2022/12/07 07:46:38;;;;;;;8.20;7.50;;;10.00;85.00;;;;;;5014832;28;20474;-83
2022/12/07 07:49:04;;;;;;;8.50;7.80;;;10.00;85.00;;;;;;5016492;28;20048;-83
2022/12/07 07:51:29;;;;;;;8.00;7.40;;;10.00;85.60;;;;;;5003353;28;20022;-84
2022/12/07 07:53:55;;;;;;;15.82;7.97;;;10.00;85.10;;;;;;4996489;28;20038;-82
2022/12/07 07:56:20;;;;;;;8.55;7.93;;;10.00;85.00;;;;;;5011257;28;20057;-83
2022/12/07 07:58:46;;;;;;;8.38;7.68;;;10.00;85.10;;;;;;4996495;28;20517;-84
2022/12/07 08:01:13;;;;;;;8.52;7.82;;;10.00;85.00;;;;;;5000533;28;20080;-83
2022/12/07 08:03:38;;;;;;;8.45;7.75;;;10.00;85.00;;;;;;5015341;28;20030;-83
2022/12/07 08:06:05;;;;;;;8.40;7.80;;;10.00;84.90;;;;;;5014566;28;20071;-83
2022/12/07 08:08:30;;;;;;;8.32;7.70;;;10.10;84.90;;;;;;5015260;28;20022;-83
2022/12/07 08:10:56;;;;;;;9.00;8.30;;;10.10;84.80;;;;;;5020152;28;20037;-82
2022/12/07 08:13:21;;;;;;;8.55;7.85;;;10.10;84.70;;;;;;4998741;28;20022;-83
2022/12/07 08:15:48;;;;;;;8.50;7.90;;;10.10;84.70;;;;;;5017404;28;20481;-84
2022/12/07 08:18:14;;;;;;;8.88;8.18;;;10.10;84.60;;;;;;5016972;28;20117;-81
2022/12/07 08:20:42;;;;;;;9.10;8.20;;;10.20;84.50;;;;;;5008615;28;20022;-83
2022/12/07 08:23:08;;;;;;;8.65;8.05;;;10.20;84.50;;;;;;4997446;28;20433;-83
2022/12/07 08:25:34;;;;;;;8.90;8.20;;;10.20;84.50;;;;;;5006698;28;20022;-84
2022/12/07 08:28:00;;;;;;;8.45;7.85;;;10.20;84.50;;;;;;5015581;28;20088;-84
2022/12/07 08:30:27;;;;;;;8.93;8.32;;;10.20;84.40;;;;;;5013334;28;20026;-82
2022/12/07 08:32:52;;;;;;;8.63;8.02;;;10.20;84.50;;;;;;4994828;28;20026;-84
2022/12/07 08:35:18;;;;;;;8.55;7.95;;;10.20;84.50;;;;;;4994019;28;20394;-83
2022/12/07 08:37:44;;;;;;;9.00;8.27;;;10.20;84.50;;;;;;5013340;28;20026;-83
2022/12/07 08:40:14;;;;;;;8.98;8.32;;;10.20;84.60;;;;;;5012570;28;20030;-83
2022/12/07 08:42:44;;;;;;;8.85;8.15;;;10.10;84.50;;;;;;5011879;28;20030;-83
2022/12/07 08:45:12;;;;;;;9.07;8.38;;;10.10;84.60;;;;;;4997843;28;20027;-83
2022/12/07 08:47:44;;;;;;;8.98;8.32;;;10.10;84.60;;;;;;4995161;28;20049;-84
2022/12/07 08:50:11;;;;;;;;;;;10.10;84.60;;;;;;5000409;28;20085;-84
2022/12/07 08:52:37;;;;;;;8.50;7.80;;;10.20;84.70;;;;;;5000128;28;20296;-83
2022/12/07 08:55:04;;;;;;;8.77;8.07;;;10.20;84.60;;;;;;4998313;28;20030;-87
2022/12/07 08:57:32;;;;;;;8.88;8.18;;;10.20;84.50;;;;;;5011423;28;20057;-83
2022/12/07 08:59:57;;;;;;;9.48;8.70;;;10.30;84.50;;;;;;5018268;28;20029;-83
2022/12/07 09:02:23;;;;;;;9.20;8.40;;;10.30;84.30;;;;;;5008896;28;20030;-83
2022/12/07 09:04:49;;;;;;;9.10;8.40;;;10.30;84.40;;;;;;5017218;28;20018;-84
2022/12/07 09:07:15;;;;;;;8.60;8.00;;;10.30;84.30;;;;;;5017787;28;20041;-83
2022/12/07 09:09:40;;;;;;;8.88;8.27;;;10.30;84.30;;;;;;5015888;28;20486;-83
2022/12/07 09:12:06;;;;;;;9.15;8.55;;;10.30;84.30;;;;;;5016421;28;20057;-83
2022/12/07 09:14:31;;;;;;;9.35;8.65;;;10.30;84.30;;;;;;5008060;28;20022;-83
2022/12/07 09:17:06;;;;;;;9.30;8.65;;;10.30;84.30;;;;;;5017135;28;20052;-83
2022/12/07 09:19:32;;;;;;;9.10;8.40;;;10.30;84.30;;;;;;5015762;28;20030;-83
2022/12/07 09:21:57;;;;;;;8.77;8.07;;;10.30;84.30;;;;;;5007833;28;20539;-85
2022/12/07 09:24:23;;;;;;;9.30;8.60;;;10.30;84.30;;;;;;5015750;28;20034;-84
2022/12/07 09:26:49;;;;;;;8.90;8.25;;;10.30;84.30;;;;;;5031784;28;20018;-84
2022/12/07 09:29:14;;;;;;;8.63;8.00;;;10.30;84.30;;;;;;5016834;28;20518;-83
2022/12/07 09:31:40;;;;;;;8.95;8.27;;;10.30;84.30;;;;;;5003322;28;20026;-84
2022/12/07 09:34:07;;;;;;;9.20;8.50;;;10.30;84.30;;;;;;4995770;28;20160;-83
2022/12/07 09:36:33;;;;;;;8.27;7.68;;;10.30;84.30;;;;;;5002107;28;20096;-84
2022/12/07 09:38:58;;;;;;;8.90;8.30;;;10.20;84.30;;;;;;5016460;28;20037;-83
2022/12/07 09:41:26;;;;;;;9.60;8.90;;;10.30;84.30;;;;;;5010276;28;20034;-83
2022/12/07 09:43:57;;;;;;;8.68;8.07;;;10.20;84.30;;;;;;5007090;28;20060;-83
2022/12/07 09:46:22;;;;;;;9.18;8.48;;;10.20;84.30;;;;;;5034388;28;20025;-84
2022/12/07 09:48:50;;;;;;;8.43;7.82;;;10.20;84.30;;;;;;5018097;28;20019;-83
2022/12/07 09:51:24;;;;;;;8.70;8.10;;;10.20;84.30;;;;;;5015318;28;20077;-84
2022/12/07 09:53:51;;;;;;;9.23;8.52;;;10.30;84.30;;;;;;5007141;28;20025;-84
2022/12/07 09:56:19;;;;;;;9.20;8.50;;;10.30;84.30;;;;;;5019607;28;20057;-84
2022/12/07 09:58:45;;;;;;;8.98;8.30;;;10.30;84.30;;;;;;5021822;28;20091;-84
2022/12/07 10:01:13;;;;;;;9.15;8.45;;;10.30;84.30;;;;;;5020069;28;20076;-84
2022/12/07 10:03:42;;;;;;;8.68;8.02;;;10.30;84.20;;;;;;5013438;28;20053;-85
2022/12/07 10:06:12;;;;;;;9.07;8.38;;;10.30;84.20;;;;;;5036244;28;20026;-83
2022/12/07 10:08:37;;;;;;;8.70;8.00;;;10.30;84.20;;;;;;5019159;28;20030;-83
2022/12/07 10:11:10;;;;;;;8.68;8.05;;;10.30;84.30;;;;;;5027134;28;20084;-84
2022/12/07 10:13:48;;;;;;;8.50;7.90;;;10.30;84.30;;;;;;5008099;28;20121;-86
2022/12/07 10:16:38;;;;;;;8.50;7.90;;;10.30;84.30;;;;;;5008895;28;20508;-84
2022/12/07 10:19:24;;;;;;;8.20;7.60;;;10.30;84.20;;;;;;5017921;28;20033;-83
2022/12/07 10:22:03;;;;;;;8.40;7.72;;;10.40;84.30;;;;;;5010033;28;20080;-83
2022/12/07 10:24:29;;;;;;;8.55;7.85;;;10.30;84.10;;;;;;5014272;28;20077;-84
2022/12/07 10:26:55;;;;;;;8.48;7.88;;;10.40;84.00;;;;;;5012311;28;20022;-83
2022/12/07 10:29:28;;;;;;;8.77;8.18;;;10.40;84.00;;;;;;5015903;28;20022;-84
2022/12/07 10:31:57;;;;;;;8.52;7.93;;;10.40;84.00;;;;;;5017484;28;20156;-83
2022/12/07 10:34:24;;;;;;;8.20;7.60;;;10.40;84.00;;;;;;5013314;28;20509;-83
2022/12/07 10:36:51;;;;;;;8.43;7.82;;;10.30;84.00;;;;;;4997431;28;20402;-84
2022/12/07 10:39:22;;;;;;;8.35;7.75;;;10.40;84.10;;;;;;5000148;28;20036;-83
2022/12/07 10:42:02;;;;;;;8.50;7.90;;;10.40;84.20;;;;;;5003174;28;20497;-84
2022/12/07 10:44:32;;;;;;;8.15;7.45;;;10.30;84.10;;;;;;4998086;28;20521;-85
2022/12/07 10:47:29;;;;;;;8.30;7.70;;;10.30;84.20;;;;;;4996994;28;20441;-83
2022/12/07 10:50:08;;;;;;;7.93;7.32;;;10.30;84.30;;;;;;4996913;28;20529;-82
2022/12/07 10:52:57;;;;;;;8.50;7.90;;;10.30;84.30;;;;;;4997173;28;20081;-84
2022/12/07 10:55:47;;;;;;;8.23;7.53;;;10.20;84.30;;;;;;5012336;28;20040;-84
2022/12/07 10:58:39;;;;;;;8.00;7.40;;;10.30;84.40;;;;;;5017305;28;20041;-83
2022/12/07 11:01:11;;;;;;;8.02;7.43;;;10.30;84.40;;;;;;5024542;28;20125;-83
2022/12/07 11:04:00;;;;;;;8.18;7.47;;;10.30;84.40;;;;;;4996746;28;20105;-83
2022/12/07 11:06:39;;;;;;;7.85;7.25;;;10.30;84.50;;;;;;5010250;28;20076;-84
2022/12/07 11:09:16;;;;;;;7.90;7.30;;;10.30;84.50;;;;;;5016137;28;20033;-83
2022/12/07 11:11:57;;;;;;;8.40;7.80;;;10.30;84.50;;;;;;5012954;28;20060;-84
2022/12/07 11:14:44;;;;;;;8.20;7.60;;;10.20;84.40;;;;;;5014652;28;20080;-83
2022/12/07 11:17:09;;;;;;;8.60;7.90;;;10.30;84.50;;;;;;4995944;28;20026;-83
2022/12/07 11:19:54;;;;;;;8.73;8.13;;;10.30;84.20;;;;;;4995477;28;20037;-83
2022/12/07 11:22:51;;;;;;;8.70;8.00;;;10.30;84.20;;;;;;4996667;28;20052;-83
2022/12/07 11:25:31;;;;;;;8.48;7.88;;;10.30;84.20;;;;;;4997145;28;20026;-83
2022/12/07 11:28:10;;;;;;;8.45;7.85;;;10.30;84.20;;;;;;5010711;28;20054;-81
2022/12/07 11:30:43;;;;;;;8.70;8.10;;;10.40;84.20;;;;;;5011457;28;20018;-83
2022/12/07 11:33:23;;;;;;;8.70;8.10;;;10.40;84.20;;;;;;4995659;28;20033;-83
2022/12/07 11:36:02;;;;;;;8.30;7.70;;;10.40;83.90;;;;;;4999741;28;20033;-85
2022/12/07 11:38:40;;;;;;;8.90;8.20;;;10.40;83.70;;;;;;5019747;28;20053;-85
2022/12/07 11:41:15;;;;;;;8.68;8.07;;;10.40;83.70;;;;;;5011702;28;20062;-84
2022/12/07 11:44:00;;;;;;;8.80;8.20;;;10.40;83.90;;;;;;5012598;28;20034;-84
2022/12/07 11:46:42;;;;;;;8.55;7.88;;;10.40;84.00;;;;;;5019734;28;20033;-83
2022/12/07 11:49:41;;;;;;;8.73;8.07;;;10.30;84.00;;;;;;5018339;28;20084;-84
2022/12/07 11:52:18;;;;;;;8.60;8.00;;;10.30;84.00;;;;;;4997507;28;20058;-82
2022/12/07 11:54:45;;;;;;;9.07;8.48;;;10.40;83.90;;;;;;4997859;28;20029;-84
2022/12/07 11:57:20;;;;;;;9.18;8.57;;;10.50;83.70;;;;;;4999710;28;20037;-84
2022/12/07 11:59:51;;;;;;;9.80;9.10;;;10.50;83.50;;;;;;5017070;28;20018;-83
2022/12/07 12:02:25;;;;;;;9.63;8.93;;;10.50;83.20;;;;;;5010530;28;20035;-83
2022/12/07 12:05:13;;;;;;;9.30;8.60;;;10.50;83.20;;;;;;4996754;28;20105;-83
2022/12/07 12:07:39;;;;;;;9.13;8.52;;;10.50;83.10;;;;;;4998088;28;20089;-84
2022/12/07 12:10:27;;;;;;;9.55;8.85;;;10.60;83.10;;;;;;4996272;28;20034;-84
2022/12/07 12:13:02;;;;;;;9.23;8.63;;;10.60;83.10;;;;;;5007291;28;20058;-83
2022/12/07 12:16:04;;;;;;;9.25;8.65;;;10.60;82.90;;;;;;5014214;28;20030;-84
2022/12/07 12:18:53;;;;;;;8.73;8.13;;;10.60;82.80;;;;;;5033089;28;20058;-83
2022/12/07 12:21:26;;;;;;;9.25;8.63;;;10.70;82.70;;;;;;5008630;28;20053;-85
2022/12/07 12:24:12;;;;;;;9.35;8.45;;;10.70;82.40;;;;;;5028816;28;20117;-85
2022/12/07 12:26:38;;;;;;;8.48;7.88;;;10.80;82.30;;;;;;5017539;28;20116;-84
2022/12/07 12:29:19;;;;;;;8.75;8.15;;;10.80;82.70;;;;;;5017515;28;20076;-84
2022/12/07 12:31:48;;;;;;;9.38;8.68;;;10.80;82.10;;;;;;5010501;28;20097;-85
2022/12/07 12:34:58;;;;;;;9.05;8.35;;;10.70;82.20;;;;;;5017848;28;20034;-84
2022/12/07 12:37:32;;;;;;;8.27;7.68;;;10.70;82.40;;;;;;5017086;28;20032;-84
2022/12/07 12:40:16;;;;;;;8.80;8.20;;;10.60;82.60;;;;;;4996658;28;20034;-84
2022/12/07 12:42:45;;;;;;;9.07;8.38;;;10.60;82.80;;;;;;5011479;28;20029;-84
2022/12/07 12:45:21;;;;;;;8.70;8.10;;;10.60;83.00;;;;;;5016279;28;20043;-84
2022/12/07 12:48:03;;;;;;;8.90;8.10;;;10.60;83.10;;;;;;5016162;28;20026;-83
2022/12/07 12:50:34;;;;;;;8.77;8.18;;;10.50;83.20;;;;;;4996504;28;20046;-84
2022/12/07 12:53:05;;;;;;;8.60;8.00;;;10.50;83.30;;;;;;5012903;28;20133;-83
2022/12/07 12:55:42;;;;;;;8.98;8.38;;;10.50;83.40;;;;;;5012626;28;20034;-84
2022/12/07 12:58:17;;;;;;;8.43;7.82;;;10.50;84.00;;;;;;5016837;28;20022;-84
2022/12/07 13:00:44;;;;;;;8.90;8.20;;;10.50;83.50;;;;;;5010305;28;20054;-85
2022/12/07 13:03:26;;;;;;;8.73;8.13;;;10.40;83.50;;;;;;5005017;28;20109;-83
2022/12/07 13:06:19;;;;;;;8.73;8.02;;;10.40;83.50;;;;;;4994963;28;20395;-83
2022/12/07 13:08:45;;;;;;;8.43;7.82;;;10.50;83.60;;;;;;4997825;28;20301;-83